sensor_id;sensor_type;location;lat;lon;timestamp;P1;durP1;ratioP1;P2;durP2;ratioP2
26620;SDS011;14253;44.840;10.444;2023-11-19T00:00:56;7.57;;;3.92;;
26620;SDS011;14253;44.840;10.444;2023-11-19T00:03:22;6.45;;;3.95;;
26620;SDS011;14253;44.840;10.444;2023-11-19T00:05:48;9.73;;;3.85;;
26620;SDS011;14253;44.840;10.444;2023-11-19T00:08:15;6.25;;;3.72;;
26620;SDS011;14253;44.840;10.444;2023-11-19T00:10:41;6.53;;;4.03;;
26620;SDS011;14253;44.840;10.444;2023-11-19T00:13:07;6.45;;;4.05;;
26620;SDS011;14253;44.840;10.444;2023-11-19T00:15:35;10.75;;;4.22;;
26620;SDS011;14253;44.840;10.444;2023-11-19T00:18:01;5.85;;;3.85;;
26620;SDS011;14253;44.840;10.444;2023-11-19T00:20:30;8.00;;;4.00;;
26620;SDS011;14253;44.840;10.444;2023-11-19T00:22:56;9.23;;;4.93;;
26620;SDS011;14253;44.840;10.444;2023-11-19T00:25:22;8.65;;;4.40;;
26620;SDS011;14253;44.840;10.444;2023-11-19T00:27:48;7.95;;;5.20;;
26620;SDS011;14253;44.840;10.444;2023-11-19T00:30:14;8.80;;;5.43;;
26620;SDS011;14253;44.840;10.444;2023-11-19T00:32:40;9.85;;;4.95;;
26620;SDS011;14253;44.840;10.444;2023-11-19T00:35:07;7.65;;;4.10;;
26620;SDS011;14253;44.840;10.444;2023-11-19T00:37:34;6.57;;;4.32;;
26620;SDS011;14253;44.840;10.444;2023-11-19T00:40:00;7.70;;;4.07;;
26620;SDS011;14253;44.840;10.444;2023-11-19T00:42:25;9.00;;;4.50;;
26620;SDS011;14253;44.840;10.444;2023-11-19T00:44:52;5.97;;;3.42;;
26620;SDS011;14253;44.840;10.444;2023-11-19T00:47:18;6.60;;;4.47;;
26620;SDS011;14253;44.840;10.444;2023-11-19T00:49:46;8.63;;;4.22;;
26620;SDS011;14253;44.840;10.444;2023-11-19T00:52:16;6.80;;;4.05;;
26620;SDS011;14253;44.840;10.444;2023-11-19T00:54:42;6.35;;;3.65;;
26620;SDS011;14253;44.840;10.444;2023-11-19T00:57:08;7.28;;;4.25;;
26620;SDS011;14253;44.840;10.444;2023-11-19T00:59:34;7.32;;;4.45;;
26620;SDS011;14253;44.840;10.444;2023-11-19T01:02:00;6.80;;;4.18;;
26620;SDS011;14253;44.840;10.444;2023-11-19T01:04:34;7.97;;;4.78;;
26620;SDS011;14253;44.840;10.444;2023-11-19T01:07:04;6.90;;;4.13;;
26620;SDS011;14253;44.840;10.444;2023-11-19T01:09:31;7.05;;;3.92;;
26620;SDS011;14253;44.840;10.444;2023-11-19T01:11:59;6.47;;;4.10;;
26620;SDS011;14253;44.840;10.444;2023-11-19T01:14:26;9.50;;;4.70;;
26620;SDS011;14253;44.840;10.444;2023-11-19T01:16:53;8.38;;;4.03;;
26620;SDS011;14253;44.840;10.444;2023-11-19T01:19:22;7.68;;;4.30;;
26620;SDS011;14253;44.840;10.444;2023-11-19T01:21:49;8.98;;;4.70;;
26620;SDS011;14253;44.840;10.444;2023-11-19T01:24:16;6.38;;;3.90;;
26620;SDS011;14253;44.840;10.444;2023-11-19T01:26:43;8.40;;;3.60;;
26620;SDS011;14253;44.840;10.444;2023-11-19T01:29:13;5.43;;;3.72;;
26620;SDS011;14253;44.840;10.444;2023-11-19T01:31:40;7.03;;;4.13;;
26620;SDS011;14253;44.840;10.444;2023-11-19T01:34:12;10.05;;;3.90;;
26620;SDS011;14253;44.840;10.444;2023-11-19T01:36:38;10.40;;;4.38;;
26620;SDS011;14253;44.840;10.444;2023-11-19T01:39:04;10.93;;;4.18;;
26620;SDS011;14253;44.840;10.444;2023-11-19T01:41:34;13.95;;;5.38;;
26620;SDS011;14253;44.840;10.444;2023-11-19T01:44:05;16.07;;;6.10;;
26620;SDS011;14253;44.840;10.444;2023-11-19T01:46:31;11.48;;;4.93;;
26620;SDS011;14253;44.840;10.444;2023-11-19T01:48:58;18.77;;;6.18;;
26620;SDS011;14253;44.840;10.444;2023-11-19T01:51:25;10.27;;;5.40;;
26620;SDS011;14253;44.840;10.444;2023-11-19T01:53:53;12.27;;;5.13;;
26620;SDS011;14253;44.840;10.444;2023-11-19T01:56:20;12.18;;;4.97;;
26620;SDS011;14253;44.840;10.444;2023-11-19T01:58:47;11.70;;;5.28;;
26620;SDS011;14253;44.840;10.444;2023-11-19T02:01:15;13.15;;;5.22;;
26620;SDS011;14253;44.840;10.444;2023-11-19T02:03:42;15.25;;;6.35;;
26620;SDS011;14253;44.840;10.444;2023-11-19T02:06:08;14.48;;;6.30;;
26620;SDS011;14253;44.840;10.444;2023-11-19T02:08:35;11.93;;;5.35;;
26620;SDS011;14253;44.840;10.444;2023-11-19T02:11:02;11.68;;;4.90;;
26620;SDS011;14253;44.840;10.444;2023-11-19T02:13:29;10.98;;;4.68;;
26620;SDS011;14253;44.840;10.444;2023-11-19T02:15:55;7.40;;;4.00;;
26620;SDS011;14253;44.840;10.444;2023-11-19T02:18:21;6.47;;;4.35;;
26620;SDS011;14253;44.840;10.444;2023-11-19T02:20:54;10.05;;;4.78;;
26620;SDS011;14253;44.840;10.444;2023-11-19T02:23:28;8.60;;;4.03;;
26620;SDS011;14253;44.840;10.444;2023-11-19T02:28:49;8.27;;;4.07;;
26620;SDS011;14253;44.840;10.444;2023-11-19T02:31:15;9.05;;;4.38;;
26620;SDS011;14253;44.840;10.444;2023-11-19T02:33:41;10.00;;;4.43;;
26620;SDS011;14253;44.840;10.444;2023-11-19T02:36:07;7.57;;;4.35;;
26620;SDS011;14253;44.840;10.444;2023-11-19T02:38:34;8.13;;;4.35;;
26620;SDS011;14253;44.840;10.444;2023-11-19T02:41:04;7.70;;;4.38;;
26620;SDS011;14253;44.840;10.444;2023-11-19T02:43:32;8.05;;;4.10;;
26620;SDS011;14253;44.840;10.444;2023-11-19T02:46:04;11.23;;;5.28;;
26620;SDS011;14253;44.840;10.444;2023-11-19T02:48:34;8.13;;;3.97;;
26620;SDS011;14253;44.840;10.444;2023-11-19T02:51:01;6.82;;;3.80;;
26620;SDS011;14253;44.840;10.444;2023-11-19T02:53:31;7.93;;;4.05;;
26620;SDS011;14253;44.840;10.444;2023-11-19T02:55:57;6.90;;;3.65;;
26620;SDS011;14253;44.840;10.444;2023-11-19T02:58:31;7.03;;;3.97;;
26620;SDS011;14253;44.840;10.444;2023-11-19T03:00:57;6.53;;;3.70;;
26620;SDS011;14253;44.840;10.444;2023-11-19T03:03:25;6.30;;;4.15;;
26620;SDS011;14253;44.840;10.444;2023-11-19T03:05:56;9.52;;;3.67;;
26620;SDS011;14253;44.840;10.444;2023-11-19T03:08:22;7.20;;;3.42;;
26620;SDS011;14253;44.840;10.444;2023-11-19T03:10:48;5.30;;;3.28;;
26620;SDS011;14253;44.840;10.444;2023-11-19T03:13:15;8.38;;;4.00;;
26620;SDS011;14253;44.840;10.444;2023-11-19T03:15:44;5.38;;;3.30;;
26620;SDS011;14253;44.840;10.444;2023-11-19T03:18:11;6.75;;;3.45;;
26620;SDS011;14253;44.840;10.444;2023-11-19T03:20:37;7.40;;;3.28;;
26620;SDS011;14253;44.840;10.444;2023-11-19T03:23:03;6.57;;;3.00;;
26620;SDS011;14253;44.840;10.444;2023-11-19T03:25:29;4.60;;;3.20;;
26620;SDS011;14253;44.840;10.444;2023-11-19T03:28:00;14.77;;;3.08;;
26620;SDS011;14253;44.840;10.444;2023-11-19T03:30:29;5.88;;;3.20;;
26620;SDS011;14253;44.840;10.444;2023-11-19T03:32:56;5.20;;;2.92;;
26620;SDS011;14253;44.840;10.444;2023-11-19T03:35:22;7.70;;;2.88;;
26620;SDS011;14253;44.840;10.444;2023-11-19T03:37:49;8.75;;;3.05;;
26620;SDS011;14253;44.840;10.444;2023-11-19T03:40:16;4.63;;;2.65;;
26620;SDS011;14253;44.840;10.444;2023-11-19T03:42:46;8.13;;;3.22;;
26620;SDS011;14253;44.840;10.444;2023-11-19T03:45:12;6.18;;;3.65;;
26620;SDS011;14253;44.840;10.444;2023-11-19T03:47:38;8.95;;;2.90;;
26620;SDS011;14253;44.840;10.444;2023-11-19T03:50:05;5.78;;;2.67;;
26620;SDS011;14253;44.840;10.444;2023-11-19T03:52:32;10.95;;;3.13;;
26620;SDS011;14253;44.840;10.444;2023-11-19T03:54:58;4.88;;;2.65;;
26620;SDS011;14253;44.840;10.444;2023-11-19T03:57:24;4.40;;;2.30;;
26620;SDS011;14253;44.840;10.444;2023-11-19T03:59:51;4.15;;;3.08;;
26620;SDS011;14253;44.840;10.444;2023-11-19T04:02:17;4.57;;;2.55;;
26620;SDS011;14253;44.840;10.444;2023-11-19T04:04:43;5.35;;;2.47;;
26620;SDS011;14253;44.840;10.444;2023-11-19T04:07:09;6.95;;;2.95;;
26620;SDS011;14253;44.840;10.444;2023-11-19T04:09:35;5.25;;;2.75;;
26620;SDS011;14253;44.840;10.444;2023-11-19T04:12:03;5.25;;;2.85;;
26620;SDS011;14253;44.840;10.444;2023-11-19T04:14:29;5.00;;;3.03;;
26620;SDS011;14253;44.840;10.444;2023-11-19T04:16:55;3.95;;;2.45;;
26620;SDS011;14253;44.840;10.444;2023-11-19T04:19:21;5.50;;;2.60;;
26620;SDS011;14253;44.840;10.444;2023-11-19T04:21:47;5.53;;;2.85;;
26620;SDS011;14253;44.840;10.444;2023-11-19T04:24:13;4.78;;;2.50;;
26620;SDS011;14253;44.840;10.444;2023-11-19T04:26:43;8.27;;;3.30;;
26620;SDS011;14253;44.840;10.444;2023-11-19T04:29:14;4.35;;;2.83;;
26620;SDS011;14253;44.840;10.444;2023-11-19T04:31:44;5.80;;;2.58;;
26620;SDS011;14253;44.840;10.444;2023-11-19T04:34:11;5.82;;;2.58;;
26620;SDS011;14253;44.840;10.444;2023-11-19T04:36:37;5.07;;;2.65;;
26620;SDS011;14253;44.840;10.444;2023-11-19T04:39:04;3.85;;;2.45;;
26620;SDS011;14253;44.840;10.444;2023-11-19T04:41:35;7.78;;;3.00;;
26620;SDS011;14253;44.840;10.444;2023-11-19T04:44:01;5.38;;;2.35;;
26620;SDS011;14253;44.840;10.444;2023-11-19T04:46:27;4.47;;;1.80;;
26620;SDS011;14253;44.840;10.444;2023-11-19T04:48:53;4.97;;;2.40;;
26620;SDS011;14253;44.840;10.444;2023-11-19T04:51:19;5.35;;;2.10;;
26620;SDS011;14253;44.840;10.444;2023-11-19T04:53:45;4.80;;;2.53;;
26620;SDS011;14253;44.840;10.444;2023-11-19T04:56:11;4.30;;;2.88;;
26620;SDS011;14253;44.840;10.444;2023-11-19T04:58:38;7.88;;;2.65;;
26620;SDS011;14253;44.840;10.444;2023-11-19T05:01:04;6.53;;;3.35;;
26620;SDS011;14253;44.840;10.444;2023-11-19T05:03:31;6.95;;;2.90;;
26620;SDS011;14253;44.840;10.444;2023-11-19T05:05:57;5.53;;;2.88;;
26620;SDS011;14253;44.840;10.444;2023-11-19T05:08:24;6.10;;;2.90;;
26620;SDS011;14253;44.840;10.444;2023-11-19T05:10:50;5.55;;;2.35;;
26620;SDS011;14253;44.840;10.444;2023-11-19T05:13:16;6.32;;;3.08;;
26620;SDS011;14253;44.840;10.444;2023-11-19T05:15:42;4.38;;;2.58;;
26620;SDS011;14253;44.840;10.444;2023-11-19T05:18:08;9.20;;;3.08;;
26620;SDS011;14253;44.840;10.444;2023-11-19T05:20:34;7.43;;;4.22;;
26620;SDS011;14253;44.840;10.444;2023-11-19T05:23:00;5.15;;;3.00;;
26620;SDS011;14253;44.840;10.444;2023-11-19T05:25:26;4.85;;;2.47;;
26620;SDS011;14253;44.840;10.444;2023-11-19T05:27:53;4.95;;;2.60;;
26620;SDS011;14253;44.840;10.444;2023-11-19T05:30:19;3.38;;;2.47;;
26620;SDS011;14253;44.840;10.444;2023-11-19T05:32:45;6.20;;;2.80;;
26620;SDS011;14253;44.840;10.444;2023-11-19T05:35:11;8.00;;;2.60;;
26620;SDS011;14253;44.840;10.444;2023-11-19T05:37:37;3.85;;;2.70;;
26620;SDS011;14253;44.840;10.444;2023-11-19T05:40:03;4.20;;;2.28;;
26620;SDS011;14253;44.840;10.444;2023-11-19T05:42:37;4.85;;;2.20;;
26620;SDS011;14253;44.840;10.444;2023-11-19T05:45:03;4.50;;;2.20;;
26620;SDS011;14253;44.840;10.444;2023-11-19T05:47:29;6.22;;;2.28;;
26620;SDS011;14253;44.840;10.444;2023-11-19T05:49:55;3.45;;;2.20;;
26620;SDS011;14253;44.840;10.444;2023-11-19T05:52:21;6.82;;;2.28;;
26620;SDS011;14253;44.840;10.444;2023-11-19T05:54:48;5.20;;;2.30;;
26620;SDS011;14253;44.840;10.444;2023-11-19T05:57:17;4.63;;;2.22;;
26620;SDS011;14253;44.840;10.444;2023-11-19T05:59:49;4.28;;;2.30;;
26620;SDS011;14253;44.840;10.444;2023-11-19T06:02:15;5.28;;;2.58;;
26620;SDS011;14253;44.840;10.444;2023-11-19T06:04:41;5.10;;;1.95;;
26620;SDS011;14253;44.840;10.444;2023-11-19T06:07:09;4.00;;;2.20;;
26620;SDS011;14253;44.840;10.444;2023-11-19T06:09:35;4.38;;;2.13;;
26620;SDS011;14253;44.840;10.444;2023-11-19T06:12:01;4.63;;;2.40;;
26620;SDS011;14253;44.840;10.444;2023-11-19T06:14:27;3.20;;;1.90;;
26620;SDS011;14253;44.840;10.444;2023-11-19T06:16:53;3.10;;;1.90;;
26620;SDS011;14253;44.840;10.444;2023-11-19T06:19:19;4.65;;;2.65;;
26620;SDS011;14253;44.840;10.444;2023-11-19T06:21:45;4.53;;;2.20;;
26620;SDS011;14253;44.840;10.444;2023-11-19T06:24:11;5.53;;;2.03;;
26620;SDS011;14253;44.840;10.444;2023-11-19T06:26:37;4.05;;;2.15;;
26620;SDS011;14253;44.840;10.444;2023-11-19T06:29:04;4.80;;;2.15;;
26620;SDS011;14253;44.840;10.444;2023-11-19T06:31:30;4.72;;;2.83;;
26620;SDS011;14253;44.840;10.444;2023-11-19T06:33:56;5.07;;;2.50;;
26620;SDS011;14253;44.840;10.444;2023-11-19T06:36:22;4.85;;;2.40;;
26620;SDS011;14253;44.840;10.444;2023-11-19T06:38:48;5.18;;;2.72;;
26620;SDS011;14253;44.840;10.444;2023-11-19T06:41:14;4.63;;;3.20;;
26620;SDS011;14253;44.840;10.444;2023-11-19T06:43:40;6.65;;;2.78;;
26620;SDS011;14253;44.840;10.444;2023-11-19T06:46:13;6.43;;;4.43;;
26620;SDS011;14253;44.840;10.444;2023-11-19T06:48:43;8.43;;;3.35;;
26620;SDS011;14253;44.840;10.444;2023-11-19T06:51:09;5.35;;;3.10;;
26620;SDS011;14253;44.840;10.444;2023-11-19T06:53:36;5.15;;;2.75;;
26620;SDS011;14253;44.840;10.444;2023-11-19T06:56:02;5.57;;;3.20;;
26620;SDS011;14253;44.840;10.444;2023-11-19T06:58:32;5.95;;;3.80;;
26620;SDS011;14253;44.840;10.444;2023-11-19T07:01:01;8.48;;;3.45;;
26620;SDS011;14253;44.840;10.444;2023-11-19T07:03:27;6.43;;;3.67;;
26620;SDS011;14253;44.840;10.444;2023-11-19T07:05:52;8.45;;;4.90;;
26620;SDS011;14253;44.840;10.444;2023-11-19T07:08:21;8.15;;;3.78;;
26620;SDS011;14253;44.840;10.444;2023-11-19T07:10:46;6.55;;;3.63;;
26620;SDS011;14253;44.840;10.444;2023-11-19T07:13:14;5.57;;;3.17;;
26620;SDS011;14253;44.840;10.444;2023-11-19T07:15:40;8.18;;;3.10;;
26620;SDS011;14253;44.840;10.444;2023-11-19T07:18:06;6.32;;;3.67;;
26620;SDS011;14253;44.840;10.444;2023-11-19T07:20:32;4.60;;;2.53;;
26620;SDS011;14253;44.840;10.444;2023-11-19T07:22:58;7.70;;;3.88;;
26620;SDS011;14253;44.840;10.444;2023-11-19T07:25:24;4.43;;;2.67;;
26620;SDS011;14253;44.840;10.444;2023-11-19T07:27:51;6.13;;;2.92;;
26620;SDS011;14253;44.840;10.444;2023-11-19T07:30:17;4.80;;;2.90;;
26620;SDS011;14253;44.840;10.444;2023-11-19T07:32:43;5.30;;;2.78;;
26620;SDS011;14253;44.840;10.444;2023-11-19T07:35:09;6.53;;;3.10;;
26620;SDS011;14253;44.840;10.444;2023-11-19T07:37:35;7.10;;;3.25;;
26620;SDS011;14253;44.840;10.444;2023-11-19T07:40:01;7.45;;;3.38;;
26620;SDS011;14253;44.840;10.444;2023-11-19T07:42:28;6.43;;;3.40;;
26620;SDS011;14253;44.840;10.444;2023-11-19T07:44:54;9.52;;;4.25;;
26620;SDS011;14253;44.840;10.444;2023-11-19T07:47:21;8.73;;;3.58;;
26620;SDS011;14253;44.840;10.444;2023-11-19T07:49:49;9.25;;;3.47;;
26620;SDS011;14253;44.840;10.444;2023-11-19T07:52:15;7.30;;;4.28;;
26620;SDS011;14253;44.840;10.444;2023-11-19T07:54:41;7.60;;;3.80;;
26620;SDS011;14253;44.840;10.444;2023-11-19T07:57:08;9.48;;;4.53;;
26620;SDS011;14253;44.840;10.444;2023-11-19T07:59:34;9.98;;;4.35;;
26620;SDS011;14253;44.840;10.444;2023-11-19T08:02:00;7.35;;;4.78;;
26620;SDS011;14253;44.840;10.444;2023-11-19T08:04:26;9.77;;;5.50;;
26620;SDS011;14253;44.840;10.444;2023-11-19T08:06:52;12.90;;;5.70;;
26620;SDS011;14253;44.840;10.444;2023-11-19T08:09:19;11.80;;;5.65;;
26620;SDS011;14253;44.840;10.444;2023-11-19T08:11:45;8.18;;;5.32;;
26620;SDS011;14253;44.840;10.444;2023-11-19T08:14:11;11.45;;;5.53;;
26620;SDS011;14253;44.840;10.444;2023-11-19T08:16:39;12.80;;;6.18;;
26620;SDS011;14253;44.840;10.444;2023-11-19T08:19:05;10.63;;;6.20;;
26620;SDS011;14253;44.840;10.444;2023-11-19T08:21:31;9.63;;;6.13;;
26620;SDS011;14253;44.840;10.444;2023-11-19T08:23:57;11.55;;;6.88;;
26620;SDS011;14253;44.840;10.444;2023-11-19T08:26:23;10.35;;;5.75;;
26620;SDS011;14253;44.840;10.444;2023-11-19T08:28:49;9.63;;;6.32;;
26620;SDS011;14253;44.840;10.444;2023-11-19T08:31:17;11.02;;;6.20;;
26620;SDS011;14253;44.840;10.444;2023-11-19T08:33:43;14.18;;;6.82;;
26620;SDS011;14253;44.840;10.444;2023-11-19T08:36:14;9.30;;;6.15;;
26620;SDS011;14253;44.840;10.444;2023-11-19T08:38:41;14.25;;;6.60;;
26620;SDS011;14253;44.840;10.444;2023-11-19T08:41:07;9.20;;;6.47;;
26620;SDS011;14253;44.840;10.444;2023-11-19T08:43:33;12.70;;;6.97;;
26620;SDS011;14253;44.840;10.444;2023-11-19T08:45:59;15.25;;;7.20;;
26620;SDS011;14253;44.840;10.444;2023-11-19T08:48:25;14.73;;;8.52;;
26620;SDS011;14253;44.840;10.444;2023-11-19T08:50:51;17.58;;;9.07;;
26620;SDS011;14253;44.840;10.444;2023-11-19T08:53:18;16.10;;;9.20;;
26620;SDS011;14253;44.840;10.444;2023-11-19T08:55:44;14.45;;;8.75;;
26620;SDS011;14253;44.840;10.444;2023-11-19T08:58:09;15.40;;;8.40;;
26620;SDS011;14253;44.840;10.444;2023-11-19T09:00:35;13.05;;;7.80;;
26620;SDS011;14253;44.840;10.444;2023-11-19T09:03:02;15.90;;;8.25;;
26620;SDS011;14253;44.840;10.444;2023-11-19T09:05:28;13.38;;;7.85;;
26620;SDS011;14253;44.840;10.444;2023-11-19T09:07:54;14.52;;;7.95;;
26620;SDS011;14253;44.840;10.444;2023-11-19T09:10:20;12.13;;;7.40;;
26620;SDS011;14253;44.840;10.444;2023-11-19T09:12:46;13.63;;;7.13;;
26620;SDS011;14253;44.840;10.444;2023-11-19T09:15:12;11.35;;;7.18;;
26620;SDS011;14253;44.840;10.444;2023-11-19T09:17:38;17.25;;;7.68;;
26620;SDS011;14253;44.840;10.444;2023-11-19T09:20:04;13.60;;;8.02;;
26620;SDS011;14253;44.840;10.444;2023-11-19T09:22:31;10.93;;;7.38;;
26620;SDS011;14253;44.840;10.444;2023-11-19T09:24:57;12.02;;;6.95;;
26620;SDS011;14253;44.840;10.444;2023-11-19T09:27:25;19.50;;;9.18;;
26620;SDS011;14253;44.840;10.444;2023-11-19T09:29:51;12.13;;;7.82;;
26620;SDS011;14253;44.840;10.444;2023-11-19T09:32:22;16.08;;;8.20;;
26620;SDS011;14253;44.840;10.444;2023-11-19T09:34:49;12.48;;;7.63;;
26620;SDS011;14253;44.840;10.444;2023-11-19T09:37:15;15.48;;;8.82;;
26620;SDS011;14253;44.840;10.444;2023-11-19T09:39:41;14.98;;;8.50;;
26620;SDS011;14253;44.840;10.444;2023-11-19T09:42:09;13.32;;;8.85;;
26620;SDS011;14253;44.840;10.444;2023-11-19T09:44:35;15.27;;;8.45;;
26620;SDS011;14253;44.840;10.444;2023-11-19T09:47:04;16.08;;;8.88;;
26620;SDS011;14253;44.840;10.444;2023-11-19T09:49:32;17.35;;;9.23;;
26620;SDS011;14253;44.840;10.444;2023-11-19T09:52:00;17.08;;;9.80;;
26620;SDS011;14253;44.840;10.444;2023-11-19T09:54:28;14.40;;;8.55;;
26620;SDS011;14253;44.840;10.444;2023-11-19T09:56:55;15.07;;;9.18;;
26620;SDS011;14253;44.840;10.444;2023-11-19T09:59:28;15.75;;;9.48;;
26620;SDS011;14253;44.840;10.444;2023-11-19T10:01:57;20.00;;;10.15;;
26620;SDS011;14253;44.840;10.444;2023-11-19T10:04:24;19.33;;;10.18;;
26620;SDS011;14253;44.840;10.444;2023-11-19T10:06:54;15.73;;;10.00;;
26620;SDS011;14253;44.840;10.444;2023-11-19T10:09:20;13.93;;;9.27;;
26620;SDS011;14253;44.840;10.444;2023-11-19T10:11:46;19.13;;;13.63;;
26620;SDS011;14253;44.840;10.444;2023-11-19T10:14:12;16.00;;;10.88;;
26620;SDS011;14253;44.840;10.444;2023-11-19T10:16:39;15.63;;;8.93;;
26620;SDS011;14253;44.840;10.444;2023-11-19T10:19:06;21.85;;;14.15;;
26620;SDS011;14253;44.840;10.444;2023-11-19T10:21:33;16.38;;;11.10;;
26620;SDS011;14253;44.840;10.444;2023-11-19T10:24:00;16.20;;;10.68;;
26620;SDS011;14253;44.840;10.444;2023-11-19T10:26:27;16.48;;;11.15;;
26620;SDS011;14253;44.840;10.444;2023-11-19T10:28:53;17.73;;;10.52;;
26620;SDS011;14253;44.840;10.444;2023-11-19T10:31:20;16.95;;;11.50;;
26620;SDS011;14253;44.840;10.444;2023-11-19T10:33:51;13.98;;;10.25;;
26620;SDS011;14253;44.840;10.444;2023-11-19T10:36:18;14.60;;;11.13;;
26620;SDS011;14253;44.840;10.444;2023-11-19T10:38:51;16.08;;;11.27;;
26620;SDS011;14253;44.840;10.444;2023-11-19T10:41:28;14.57;;;11.07;;
26620;SDS011;14253;44.840;10.444;2023-11-19T10:43:56;15.80;;;10.68;;
26620;SDS011;14253;44.840;10.444;2023-11-19T10:46:22;17.40;;;11.45;;
26620;SDS011;14253;44.840;10.444;2023-11-19T10:48:48;16.15;;;10.50;;
26620;SDS011;14253;44.840;10.444;2023-11-19T10:51:18;16.10;;;9.68;;
26620;SDS011;14253;44.840;10.444;2023-11-19T10:53:49;16.27;;;10.93;;
26620;SDS011;14253;44.840;10.444;2023-11-19T10:56:18;15.80;;;10.70;;
26620;SDS011;14253;44.840;10.444;2023-11-19T10:58:50;21.52;;;11.15;;
26620;SDS011;14253;44.840;10.444;2023-11-19T11:01:19;17.70;;;11.18;;
26620;SDS011;14253;44.840;10.444;2023-11-19T11:03:49;20.98;;;11.07;;
26620;SDS011;14253;44.840;10.444;2023-11-19T11:06:19;16.55;;;10.35;;
26620;SDS011;14253;44.840;10.444;2023-11-19T11:08:47;15.32;;;9.88;;
26620;SDS011;14253;44.840;10.444;2023-11-19T11:11:15;16.77;;;10.55;;
26620;SDS011;14253;44.840;10.444;2023-11-19T11:13:46;17.83;;;11.05;;
26620;SDS011;14253;44.840;10.444;2023-11-19T11:16:14;19.77;;;10.55;;
26620;SDS011;14253;44.840;10.444;2023-11-19T11:18:44;21.08;;;10.90;;
26620;SDS011;14253;44.840;10.444;2023-11-19T11:21:15;21.83;;;10.55;;
26620;SDS011;14253;44.840;10.444;2023-11-19T11:30:06;18.30;;;10.38;;
26620;SDS011;14253;44.840;10.444;2023-11-19T11:38:36;21.13;;;10.98;;
26620;SDS011;14253;44.840;10.444;2023-11-19T11:41:21;20.00;;;10.67;;
26620;SDS011;14253;44.840;10.444;2023-11-19T11:43:52;18.70;;;9.40;;
26620;SDS011;14253;44.840;10.444;2023-11-19T11:49:02;15.18;;;8.50;;
26620;SDS011;14253;44.840;10.444;2023-11-19T11:52:03;12.32;;;8.38;;
26620;SDS011;14253;44.840;10.444;2023-11-19T11:57:12;11.32;;;6.43;;
26620;SDS011;14253;44.840;10.444;2023-11-19T11:59:48;10.60;;;7.10;;
26620;SDS011;14253;44.840;10.444;2023-11-19T12:02:19;9.90;;;7.07;;
26620;SDS011;14253;44.840;10.444;2023-11-19T12:04:47;9.45;;;6.88;;
26620;SDS011;14253;44.840;10.444;2023-11-19T12:07:24;10.02;;;7.45;;
26620;SDS011;14253;44.840;10.444;2023-11-19T12:09:52;9.57;;;6.53;;
26620;SDS011;14253;44.840;10.444;2023-11-19T12:12:32;10.98;;;7.05;;
26620;SDS011;14253;44.840;10.444;2023-11-19T12:15:01;11.75;;;7.35;;
26620;SDS011;14253;44.840;10.444;2023-11-19T12:20:10;11.65;;;6.90;;
26620;SDS011;14253;44.840;10.444;2023-11-19T12:22:40;10.85;;;6.75;;
26620;SDS011;14253;44.840;10.444;2023-11-19T12:25:08;11.47;;;7.30;;
26620;SDS011;14253;44.840;10.444;2023-11-19T12:30:08;12.95;;;7.70;;
26620;SDS011;14253;44.840;10.444;2023-11-19T12:34:16;10.75;;;6.28;;
26620;SDS011;14253;44.840;10.444;2023-11-19T12:36:42;12.82;;;6.43;;
26620;SDS011;14253;44.840;10.444;2023-11-19T12:39:09;8.63;;;5.97;;
26620;SDS011;14253;44.840;10.444;2023-11-19T12:41:48;12.10;;;7.25;;
26620;SDS011;14253;44.840;10.444;2023-11-19T12:44:15;8.73;;;5.90;;
26620;SDS011;14253;44.840;10.444;2023-11-19T12:46:41;9.38;;;6.45;;
26620;SDS011;14253;44.840;10.444;2023-11-19T12:49:07;8.80;;;6.13;;
26620;SDS011;14253;44.840;10.444;2023-11-19T12:51:32;9.25;;;6.75;;
26620;SDS011;14253;44.840;10.444;2023-11-19T12:53:59;9.70;;;6.38;;
26620;SDS011;14253;44.840;10.444;2023-11-19T12:56:24;10.90;;;6.00;;
26620;SDS011;14253;44.840;10.444;2023-11-19T12:58:51;9.23;;;6.30;;
26620;SDS011;14253;44.840;10.444;2023-11-19T13:01:18;9.27;;;6.68;;
26620;SDS011;14253;44.840;10.444;2023-11-19T13:03:45;8.70;;;5.93;;
26620;SDS011;14253;44.840;10.444;2023-11-19T13:06:12;10.00;;;5.97;;
26620;SDS011;14253;44.840;10.444;2023-11-19T13:08:49;6.72;;;4.05;;
26620;SDS011;14253;44.840;10.444;2023-11-19T13:11:30;7.88;;;4.97;;
26620;SDS011;14253;44.840;10.444;2023-11-19T13:14:01;7.30;;;4.95;;
26620;SDS011;14253;44.840;10.444;2023-11-19T13:16:37;6.55;;;4.68;;
26620;SDS011;14253;44.840;10.444;2023-11-19T13:19:03;8.10;;;5.00;;
26620;SDS011;14253;44.840;10.444;2023-11-19T13:21:30;8.68;;;5.25;;
26620;SDS011;14253;44.840;10.444;2023-11-19T13:23:57;9.32;;;5.25;;
26620;SDS011;14253;44.840;10.444;2023-11-19T13:26:23;9.68;;;5.50;;
26620;SDS011;14253;44.840;10.444;2023-11-19T13:28:49;12.80;;;5.38;;
26620;SDS011;14253;44.840;10.444;2023-11-19T13:31:15;5.80;;;3.80;;
26620;SDS011;14253;44.840;10.444;2023-11-19T13:33:42;7.30;;;4.60;;
26620;SDS011;14253;44.840;10.444;2023-11-19T13:36:08;9.27;;;4.72;;
26620;SDS011;14253;44.840;10.444;2023-11-19T13:38:35;8.48;;;4.35;;
26620;SDS011;14253;44.840;10.444;2023-11-19T13:41:01;7.88;;;4.22;;
26620;SDS011;14253;44.840;10.444;2023-11-19T13:43:28;10.70;;;4.70;;
26620;SDS011;14253;44.840;10.444;2023-11-19T13:45:54;4.10;;;3.42;;
26620;SDS011;14253;44.840;10.444;2023-11-19T13:48:20;7.65;;;4.40;;
26620;SDS011;14253;44.840;10.444;2023-11-19T13:50:47;7.07;;;4.50;;
26620;SDS011;14253;44.840;10.444;2023-11-19T13:53:13;6.40;;;4.43;;
26620;SDS011;14253;44.840;10.444;2023-11-19T13:55:39;7.60;;;4.47;;
26620;SDS011;14253;44.840;10.444;2023-11-19T13:58:05;8.27;;;3.90;;
26620;SDS011;14253;44.840;10.444;2023-11-19T14:00:30;7.70;;;4.22;;
26620;SDS011;14253;44.840;10.444;2023-11-19T14:02:56;9.43;;;4.50;;
26620;SDS011;14253;44.840;10.444;2023-11-19T14:05:24;6.88;;;4.43;;
26620;SDS011;14253;44.840;10.444;2023-11-19T14:07:50;9.30;;;4.60;;
26620;SDS011;14253;44.840;10.444;2023-11-19T14:10:19;8.63;;;4.45;;
26620;SDS011;14253;44.840;10.444;2023-11-19T14:12:45;13.10;;;4.63;;
26620;SDS011;14253;44.840;10.444;2023-11-19T14:15:11;7.28;;;4.65;;
26620;SDS011;14253;44.840;10.444;2023-11-19T14:17:40;8.07;;;4.30;;
26620;SDS011;14253;44.840;10.444;2023-11-19T14:20:06;6.88;;;4.45;;
26620;SDS011;14253;44.840;10.444;2023-11-19T14:22:38;8.80;;;4.40;;
26620;SDS011;14253;44.840;10.444;2023-11-19T14:25:08;9.13;;;5.13;;
26620;SDS011;14253;44.840;10.444;2023-11-19T14:27:39;5.85;;;4.25;;
26620;SDS011;14253;44.840;10.444;2023-11-19T14:30:06;13.68;;;5.15;;
26620;SDS011;14253;44.840;10.444;2023-11-19T14:32:37;7.38;;;4.20;;
26620;SDS011;14253;44.840;10.444;2023-11-19T14:35:04;7.43;;;4.25;;
26620;SDS011;14253;44.840;10.444;2023-11-19T14:37:31;6.43;;;4.15;;
26620;SDS011;14253;44.840;10.444;2023-11-19T14:39:57;5.85;;;3.83;;
26620;SDS011;14253;44.840;10.444;2023-11-19T14:42:24;7.25;;;4.80;;
26620;SDS011;14253;44.840;10.444;2023-11-19T14:44:50;5.95;;;4.03;;
26620;SDS011;14253;44.840;10.444;2023-11-19T14:47:20;7.20;;;3.92;;
26620;SDS011;14253;44.840;10.444;2023-11-19T14:49:47;8.02;;;4.32;;
26620;SDS011;14253;44.840;10.444;2023-11-19T14:52:13;7.53;;;4.35;;
26620;SDS011;14253;44.840;10.444;2023-11-19T14:54:39;10.60;;;4.93;;
26620;SDS011;14253;44.840;10.444;2023-11-19T14:57:06;9.07;;;4.00;;